Terminal Aerodrome Forecast
Issued by NWS Mobile, AL

Home | Current Version | Previous Version | Text Only | Print | Product List | Glossary On
Versions: 1 2 3 4 5 6 7 8 9 10 11 12 13 14 15 16 17 18 19 20 21 22 23 24 25 26 27
000
FTUS44 KMOB 270521
TAFPNS
TAF
KPNS 270521Z 2706/2806 15013KT P6SM OVC010
     FM271200 19016G22KT 5SM BR OVC010
     FM271500 VRB15KT 3SM -SHRA BKN010
     FM271800 20015G22KT P6SM OVC015
     FM280100 19010KT P6SM OVC007=

USA.gov is the U.S. government's official web portal to all federal, state and local government web resources and services.